Time;durP1;ratioP1;P1;durP2;ratioP2;P2;SDS_P1;SDS_P2;PMS_P1;PMS_P2;Temp;Humidity;BMP_temperature;BMP_pressure;BME280_temperature;BME280_humidity;BME280_pressure;Samples;Min_cycle;Max_cycle;Signal;HPM_P1;HPM_P2
2022/06/25 00:01:16;;;;;;;27.73;24.83;;;18.00;99.90;;;;;;4987485;28;20108;-37
2022/06/25 00:03:42;;;;;;;27.63;24.25;;;18.00;99.90;;;;;;4986437;28;20761;-38
2022/06/25 00:06:09;;;;;;;26.92;24.10;;;18.00;99.90;;;;;;4984650;28;20205;-38
2022/06/25 00:08:36;;;;;;;27.85;24.92;;;18.00;99.90;;;;;;4977347;28;20450;-38
2022/06/25 00:11:03;;;;;;;29.27;26.35;;;18.00;99.90;;;;;;4987524;28;20521;-37
2022/06/25 00:13:28;;;;;;;30.52;27.42;;;18.00;99.90;;;;;;4984949;28;20050;-37
2022/06/25 00:15:54;;;;;;;31.50;28.20;;;18.00;99.90;;;;;;4986837;28;20053;-38
2022/06/25 00:18:20;;;;;;;31.20;27.85;;;18.00;99.90;;;;;;4971604;28;20053;-37
2022/06/25 00:20:46;;;;;;;30.30;26.58;;;18.00;99.90;;;;;;4989034;28;20391;-37
2022/06/25 00:23:13;;;;;;;30.92;27.63;;;18.00;99.90;;;;;;4988174;28;20101;-38
2022/06/25 00:25:39;;;;;;;30.65;27.33;;;18.00;99.90;;;;;;4987427;28;20505;-38
2022/06/25 00:28:05;;;;;;;32.03;28.58;;;18.00;99.90;;;;;;4970759;28;20061;-38
2022/06/25 00:30:31;;;;;;;31.52;28.23;;;18.00;99.90;;;;;;4987506;28;20053;-38
2022/06/25 00:32:57;;;;;;;31.52;28.23;;;18.00;99.90;;;;;;4985912;28;20050;-38
2022/06/25 00:35:23;;;;;;;32.05;28.40;;;18.00;99.90;;;;;;4969389;28;20101;-37
2022/06/25 00:37:49;;;;;;;31.38;27.88;;;18.00;99.90;;;;;;4971959;28;20050;-37
2022/06/25 00:40:14;;;;;;;31.67;28.17;;;18.00;99.90;;;;;;4987180;28;20367;-38
2022/06/25 00:42:48;;;;;;;31.20;28.05;;;18.00;99.90;;;;;;4986205;28;20483;-38
2022/06/25 00:45:13;;;;;;;30.38;27.00;;;18.00;99.90;;;;;;4986911;28;20050;-38
2022/06/25 00:47:39;;;;;;;30.60;27.35;;;18.00;99.90;;;;;;4969280;28;20453;-38
2022/06/25 00:50:05;;;;;;;32.58;26.80;;;18.00;99.90;;;;;;4986876;28;20042;-38
2022/06/25 00:52:39;;;;;;;29.13;26.08;;;18.00;99.90;;;;;;4986255;28;20738;-38
2022/06/25 00:55:12;;;;;;;31.17;27.52;;;17.90;99.90;;;;;;4984950;28;20042;-38
2022/06/25 00:57:43;;;;;;;31.63;27.67;;;18.00;99.90;;;;;;4970943;28;20050;-37
2022/06/25 01:00:20;;;;;;;29.75;26.48;;;18.00;99.90;;;;;;4985555;28;20047;-38
2022/06/25 01:02:46;;;;;;;30.63;27.48;;;17.90;99.90;;;;;;4986141;28;20049;-37
2022/06/25 01:05:14;;;;;;;30.58;27.38;;;17.90;99.90;;;;;;4986511;28;20461;-37
2022/06/25 01:07:44;;;;;;;31.85;27.52;;;17.90;99.90;;;;;;4970556;28;20046;-37
2022/06/25 01:10:12;;;;;;;31.50;27.40;;;17.90;99.90;;;;;;4986471;28;20042;-37
2022/06/25 01:12:37;;;;;;;30.15;26.95;;;17.90;99.90;;;;;;4986089;28;20081;-36
2022/06/25 01:15:09;;;;;;;29.77;26.10;;;17.90;99.90;;;;;;4986233;28;20074;-37
2022/06/25 01:17:46;;;;;;;31.83;26.25;;;17.90;99.90;;;;;;4970664;28;20050;-37
2022/06/25 01:20:13;;;;;;;30.42;25.70;;;17.90;99.90;;;;;;4986762;28;20050;-37
2022/06/25 01:22:39;;;;;;;31.38;26.40;;;17.90;99.90;;;;;;4985502;28;20065;-37
2022/06/25 01:25:09;;;;;;;29.20;25.40;;;17.90;99.90;;;;;;4986864;28;20062;-37
2022/06/25 01:27:35;;;;;;;28.63;24.42;;;17.80;99.90;;;;;;4970770;28;20096;-37
2022/06/25 01:30:01;;;;;;;27.00;24.13;;;17.80;99.90;;;;;;4986147;28;20498;-37
2022/06/25 01:32:26;;;;;;;27.63;24.50;;;17.80;99.90;;;;;;4985890;28;20053;-36
2022/06/25 01:34:52;;;;;;;27.80;24.73;;;17.70;99.90;;;;;;4986429;28;20478;-37
2022/06/25 01:37:18;;;;;;;28.05;25.05;;;17.70;99.90;;;;;;4974222;28;20146;-37
2022/06/25 01:39:43;;;;;;;28.35;25.23;;;17.70;99.90;;;;;;4989980;28;20156;-37
2022/06/25 01:42:58;;;;;;;28.48;25.00;;;17.70;99.90;;;;;;4989110;28;20046;-37
2022/06/25 01:44:54;;;;;;;27.38;24.38;;;17.60;99.90;;;;;;4989935;28;20046;-37
2022/06/25 01:47:20;;;;;;;26.58;23.65;;;17.60;99.90;;;;;;4973854;28;20113;-37
2022/06/25 01:49:46;;;;;;;27.08;24.02;;;17.50;99.90;;;;;;4990417;28;20042;-37
2022/06/25 01:52:14;;;;;;;29.63;23.60;;;17.50;99.90;;;;;;4989159;28;20077;-37
2022/06/25 01:54:40;;;;;;;27.02;23.33;;;17.50;99.90;;;;;;4989963;28;20046;-38
2022/06/25 01:57:06;;;;;;;26.42;23.63;;;17.50;99.90;;;;;;4972474;28;20053;-36
2022/06/25 01:59:31;;;;;;;26.30;23.58;;;17.40;99.90;;;;;;4990086;28;20047;-37
2022/06/25 02:01:57;;;;;;;29.17;22.80;;;17.40;99.90;;;;;;4988871;28;20120;-37
2022/06/25 02:04:23;;;;;;;26.42;23.23;;;17.30;99.90;;;;;;4986790;28;20430;-37
2022/06/25 02:06:48;;;;;;;27.13;23.40;;;17.30;99.90;;;;;;4974103;28;20073;-37
2022/06/25 02:09:14;;;;;;;24.75;22.05;;;17.30;99.90;;;;;;4986529;28;20039;-35
2022/06/25 02:11:40;;;;;;;28.88;23.02;;;17.30;99.90;;;;;;4989107;28;20070;-37
2022/06/25 02:14:05;;;;;;;25.13;22.52;;;17.20;99.90;;;;;;4988169;28;20061;-37
2022/06/25 02:16:31;;;;;;;25.08;22.35;;;17.20;99.90;;;;;;4977446;28;20057;-38
2022/06/25 02:18:56;;;;;;;26.08;23.27;;;17.20;99.90;;;;;;4986230;28;20050;-38
2022/06/25 02:21:22;;;;;;;26.05;23.25;;;17.20;99.90;;;;;;4989060;28;20047;-37
2022/06/25 02:23:48;;;;;;;28.88;23.90;;;17.10;99.90;;;;;;4989483;28;20058;-37
2022/06/25 02:26:13;;;;;;;25.70;23.00;;;17.10;99.90;;;;;;4979815;28;20125;-38
2022/06/25 02:28:39;;;;;;;26.25;23.25;;;17.10;99.90;;;;;;4981968;28;20062;-37
2022/06/25 02:31:04;;;;;;;27.20;23.73;;;17.10;99.90;;;;;;4988404;28;20100;-36
2022/06/25 02:33:30;;;;;;;26.42;23.63;;;17.10;99.90;;;;;;4988076;28;20097;-37
2022/06/25 02:35:56;;;;;;;25.05;22.38;;;17.10;99.90;;;;;;4988217;28;20450;-37
2022/06/25 02:38:21;;;;;;;24.52;21.92;;;17.10;99.90;;;;;;4973330;28;20345;-37
2022/06/25 02:40:47;;;;;;;26.15;22.90;;;17.10;99.90;;;;;;4988694;28;20402;-37
2022/06/25 02:43:13;;;;;;;26.20;23.20;;;17.10;99.90;;;;;;4986445;28;20456;-37
2022/06/25 02:45:39;;;;;;;23.67;21.17;;;17.10;99.90;;;;;;4988611;28;20074;-37
2022/06/25 02:48:04;;;;;;;23.92;21.25;;;17.00;99.90;;;;;;4971600;28;20132;-37
2022/06/25 02:50:31;;;;;;;25.15;21.00;;;17.00;99.90;;;;;;4988638;28;20548;-38
2022/06/25 02:52:57;;;;;;;24.23;20.88;;;17.00;99.90;;;;;;4987335;28;20131;-36
2022/06/25 03:00:51;;;;;;;24.10;21.02;;;16.90;99.90;;;;;;4989895;28;20089;-36
2022/06/25 03:03:17;;;;;;;23.02;20.08;;;16.90;99.90;;;;;;4987375;28;20490;-37
2022/06/25 03:05:43;;;;;;;22.90;19.23;;;16.90;99.90;;;;;;4985862;28;20058;-37
2022/06/25 03:08:09;;;;;;;22.20;20.00;;;16.80;99.90;;;;;;4974570;28;20046;-37
2022/06/25 03:10:34;;;;;;;22.70;19.38;;;16.80;99.90;;;;;;4988024;28;20073;-37
2022/06/25 03:13:00;;;;;;;22.00;19.50;;;16.80;99.90;;;;;;4985965;28;20055;-37
2022/06/25 03:15:25;;;;;;;21.73;19.27;;;16.80;99.90;;;;;;4987616;28;20046;-37
2022/06/25 03:17:51;;;;;;;21.60;18.85;;;16.70;99.90;;;;;;4971890;28;20058;-37
2022/06/25 03:20:17;;;;;;;20.33;18.13;;;16.70;99.90;;;;;;4986378;28;20126;-37
2022/06/25 03:22:42;;;;;;;19.38;17.38;;;16.70;99.90;;;;;;4987209;28;20506;-37
2022/06/25 03:25:08;;;;;;;20.30;18.15;;;16.70;99.90;;;;;;4987529;28;20046;-36
2022/06/25 03:27:34;;;;;;;21.48;17.35;;;16.60;99.90;;;;;;4971888;28;20518;-37
2022/06/25 03:29:59;;;;;;;20.13;18.00;;;16.60;99.90;;;;;;4987262;28;20058;-38
2022/06/25 03:32:25;;;;;;;19.60;17.50;;;16.60;99.90;;;;;;4986550;28;20475;-37
2022/06/25 03:34:51;;;;;;;20.10;17.42;;;16.50;99.90;;;;;;4970005;28;20054;-35
2022/06/25 03:37:17;;;;;;;20.20;17.50;;;16.50;99.90;;;;;;4970819;28;20511;-36
2022/06/25 03:39:42;;;;;;;20.00;17.92;;;16.50;99.90;;;;;;4987240;28;20042;-37
2022/06/25 03:42:08;;;;;;;20.65;17.83;;;16.50;99.90;;;;;;4986599;28;20053;-37
2022/06/25 03:44:34;;;;;;;20.70;18.48;;;16.50;99.90;;;;;;4987243;28;20030;-37
2022/06/25 03:46:59;;;;;;;21.90;19.50;;;16.50;99.90;;;;;;4970630;28;20061;-37
2022/06/25 03:49:25;;;;;;;20.27;18.10;;;16.50;99.90;;;;;;4985895;28;20078;-35
2022/06/25 03:51:51;;;;;;;20.25;18.02;;;16.50;99.90;;;;;;4985386;28;20061;-37
2022/06/25 03:54:17;;;;;;;23.23;18.52;;;16.50;99.90;;;;;;4984536;28;20050;-37
2022/06/25 03:56:43;;;;;;;20.70;17.13;;;16.50;99.90;;;;;;4972047;28;20540;-37
2022/06/25 03:59:08;;;;;;;19.13;17.15;;;16.50;99.90;;;;;;4984607;28;20410;-37
2022/06/25 04:01:34;;;;;;;19.17;17.17;;;16.50;99.90;;;;;;4986795;28;20054;-36
2022/06/25 04:04:00;;;;;;;19.58;16.83;;;16.50;99.90;;;;;;4985744;28;20153;-38
2022/06/25 04:06:26;;;;;;;20.55;17.23;;;16.50;99.90;;;;;;4974554;28;20600;-37
2022/06/25 04:08:51;;;;;;;17.30;15.50;;;16.50;99.90;;;;;;4982910;28;20176;-37
2022/06/25 04:11:17;;;;;;;17.88;16.00;;;16.60;99.90;;;;;;4985230;28;20054;-38
2022/06/25 04:13:43;;;;;;;18.23;16.27;;;16.60;99.90;;;;;;4984005;28;20810;-37
2022/06/25 04:16:09;;;;;;;18.95;16.33;;;16.50;99.90;;;;;;4981959;28;20052;-38
2022/06/25 04:18:34;;;;;;;17.75;15.57;;;16.50;99.90;;;;;;4976728;28;20047;-37
2022/06/25 04:21:00;;;;;;;17.05;14.93;;;16.60;99.90;;;;;;4986905;28;20050;-38
2022/06/25 04:23:26;;;;;;;16.90;15.07;;;16.60;99.90;;;;;;4985651;28;20052;-37
2022/06/25 04:25:52;;;;;;;16.92;14.65;;;16.60;99.90;;;;;;4986300;28;20050;-36
2022/06/25 04:31:02;;;;;;;15.63;14.02;;;16.60;99.90;;;;;;4985103;28;20049;-36
2022/06/25 04:33:28;;;;;;;16.48;13.98;;;16.70;99.90;;;;;;4965466;28;20038;-37
2022/06/25 04:35:54;;;;;;;16.63;14.68;;;16.70;99.90;;;;;;4967230;28;20047;-37
2022/06/25 04:38:20;;;;;;;16.73;14.43;;;16.70;99.90;;;;;;4953508;28;20486;-37
2022/06/25 04:40:45;;;;;;;15.40;13.80;;;16.70;99.90;;;;;;4969313;28;20051;-37
2022/06/25 04:43:11;;;;;;;15.95;14.30;;;16.80;99.90;;;;;;4972064;28;20041;-36
2022/06/25 04:45:37;;;;;;;15.85;14.05;;;16.80;99.90;;;;;;4984812;28;20170;-36
2022/06/25 04:48:03;;;;;;;15.93;14.32;;;16.80;99.90;;;;;;4970338;28;20189;-37
2022/06/25 04:50:29;;;;;;;13.77;12.38;;;16.90;99.90;;;;;;4986124;28;20054;-37
2022/06/25 04:52:55;;;;;;;14.27;12.60;;;16.90;99.90;;;;;;4985484;28;20058;-37
2022/06/25 04:55:21;;;;;;;13.18;11.75;;;16.90;99.90;;;;;;4984872;28;20070;-37
2022/06/25 04:57:47;;;;;;;15.00;11.93;;;16.90;99.90;;;;;;4968474;28;21209;-37
2022/06/25 05:00:13;;;;;;;13.73;12.20;;;17.00;99.90;;;;;;4984989;28;20048;-37
2022/06/25 05:02:40;;;;;;;13.23;11.02;;;17.10;99.90;;;;;;4984136;28;20514;-36
2022/06/25 05:05:06;;;;;;;13.07;11.65;;;17.10;99.90;;;;;;4983836;28;20046;-37
2022/06/25 05:07:32;;;;;;;13.32;11.18;;;17.20;99.90;;;;;;4970236;28;20038;-36
2022/06/25 05:09:58;;;;;;;12.35;11.13;;;17.20;99.90;;;;;;4985215;28;20042;-36
2022/06/25 05:15:08;;;;;;;13.75;10.30;;;17.40;99.90;;;;;;4991400;28;20053;-36
2022/06/25 05:17:34;;;;;;;11.13;9.95;;;17.50;99.90;;;;;;4972944;28;20553;-37
2022/06/25 05:20:00;;;;;;;11.07;9.93;;;17.60;99.90;;;;;;4989994;28;20074;-37
2022/06/25 05:22:26;;;;;;;10.77;9.60;;;17.70;99.90;;;;;;4986604;28;20120;-37
2022/06/25 05:24:52;;;;;;;11.57;10.07;;;17.80;99.90;;;;;;4989676;28;20959;-38
2022/06/25 05:27:17;;;;;;;11.70;9.65;;;17.80;99.90;;;;;;4974287;28;20559;-37
2022/06/25 05:29:43;;;;;;;10.43;9.32;;;18.00;99.90;;;;;;4989563;28;20061;-37
2022/06/25 05:32:09;;;;;;;10.27;8.45;;;18.00;99.90;;;;;;4971127;28;20054;-37
2022/06/25 05:34:35;;;;;;;9.82;8.57;;;18.10;99.90;;;;;;4989280;28;20557;-37
2022/06/25 05:37:01;;;;;;;9.88;8.85;;;18.20;99.90;;;;;;4974476;28;20085;-37
2022/06/25 05:39:26;;;;;;;8.50;7.70;;;18.30;99.90;;;;;;4987804;28;20077;-36
2022/06/25 05:41:52;;;;;;;10.35;8.43;;;18.40;99.90;;;;;;4989337;28;20120;-37
2022/06/25 05:44:17;;;;;;;10.27;7.88;;;18.50;99.90;;;;;;4987212;28;20105;-37
2022/06/25 05:46:43;;;;;;;10.20;8.68;;;18.60;99.90;;;;;;4974342;28;20054;-37
2022/06/25 05:49:09;;;;;;;9.32;7.93;;;18.60;99.90;;;;;;4988654;28;20042;-37
2022/06/25 05:51:34;;;;;;;9.23;8.23;;;18.70;99.90;;;;;;4989482;28;20073;-38
2022/06/25 05:54:00;;;;;;;10.25;8.15;;;18.80;99.90;;;;;;4988600;28;20502;-37
2022/06/25 05:56:26;;;;;;;8.95;7.97;;;18.90;99.90;;;;;;4976548;28;20050;-37
2022/06/25 05:58:51;;;;;;;9.45;7.93;;;18.90;99.90;;;;;;4985540;28;20078;-37
2022/06/25 06:01:17;;;;;;;9.57;7.75;;;19.00;99.90;;;;;;4989084;28;20050;-37
2022/06/25 06:03:42;;;;;;;8.98;7.55;;;19.00;99.90;;;;;;4986777;28;20046;-37
2022/06/25 06:06:08;;;;;;;10.98;7.65;;;19.10;99.90;;;;;;4981188;28;20340;-37
2022/06/25 06:08:34;;;;;;;15.18;8.25;;;19.20;99.90;;;;;;4977565;28;20808;-37
2022/06/25 06:10:59;;;;;;;9.73;7.40;;;19.20;99.90;;;;;;4989081;28;20050;-37
2022/06/25 06:13:25;;;;;;;10.23;7.03;;;19.30;99.90;;;;;;4987833;28;20046;-38
2022/06/25 06:15:51;;;;;;;10.18;7.60;;;19.30;99.90;;;;;;4990453;28;20046;-38
2022/06/25 06:18:16;;;;;;;10.48;7.18;;;19.40;99.90;;;;;;4973605;28;20422;-37
2022/06/25 06:20:42;;;;;;;8.43;7.55;;;19.50;99.90;;;;;;4988588;28;20054;-37
2022/06/25 06:23:08;;;;;;;10.18;7.18;;;19.60;99.90;;;;;;4986879;28;20400;-38
2022/06/25 06:25:33;;;;;;;8.65;7.50;;;19.70;99.90;;;;;;4990100;28;20084;-38
2022/06/25 06:27:59;;;;;;;10.93;6.60;;;19.80;99.90;;;;;;4972430;28;20382;-38
2022/06/25 06:30:25;;;;;;;8.75;6.82;;;19.90;99.90;;;;;;4987475;28;20058;-38
2022/06/25 06:32:51;;;;;;;8.98;6.63;;;19.90;99.90;;;;;;4986056;28;20437;-38
2022/06/25 06:35:16;;;;;;;8.07;6.82;;;20.00;99.90;;;;;;4988473;28;20401;-37
2022/06/25 06:37:42;;;;;;;7.47;6.13;;;20.10;99.90;;;;;;4973293;28;21212;-37
2022/06/25 06:40:08;;;;;;;8.07;6.85;;;20.20;99.90;;;;;;4988369;28;20046;-38
2022/06/25 06:42:35;;;;;;;11.90;5.97;;;20.20;99.90;;;;;;4987448;28;20046;-38
2022/06/25 06:45:01;;;;;;;8.10;6.40;;;20.20;99.90;;;;;;4988530;28;20042;-38
2022/06/25 06:47:27;;;;;;;7.57;6.45;;;20.30;99.90;;;;;;4972325;28;20089;-39
2022/06/25 06:49:52;;;;;;;6.82;6.10;;;20.30;99.90;;;;;;4988224;28;20133;-38
2022/06/25 06:52:19;;;;;;;7.97;6.07;;;20.40;99.90;;;;;;4985788;28;20046;-37
2022/06/25 06:54:45;;;;;;;7.82;5.63;;;20.50;99.90;;;;;;4986845;28;20053;-38
2022/06/25 06:57:10;;;;;;;7.60;5.70;;;20.50;99.90;;;;;;4972241;28;20042;-37
2022/06/25 06:59:36;;;;;;;7.25;5.35;;;20.60;99.90;;;;;;4988455;28;20084;-38
2022/06/25 07:02:02;;;;;;;6.10;5.47;;;20.60;99.90;;;;;;4986414;28;20050;-37
2022/06/25 07:04:28;;;;;;;9.40;5.82;;;20.70;99.90;;;;;;4983176;28;20061;-38
2022/06/25 07:06:53;;;;;;;7.18;5.45;;;20.80;99.90;;;;;;4959060;28;20130;-38
2022/06/25 07:09:19;;;;;;;7.75;5.18;;;20.90;99.90;;;;;;4978587;28;20599;-38
2022/06/25 07:11:45;;;;;;;5.88;5.28;;;20.90;99.90;;;;;;4985363;28;20046;-40
2022/06/25 07:14:13;;;;;;;7.93;4.75;;;21.00;99.90;;;;;;4967305;28;20043;-39
2022/06/25 07:16:39;;;;;;;9.15;4.32;;;21.00;99.90;;;;;;4957181;28;20098;-39
2022/06/25 07:19:05;;;;;;;5.57;4.38;;;21.10;99.90;;;;;;4966142;28;20054;-40
2022/06/25 07:21:30;;;;;;;7.40;4.50;;;21.20;99.90;;;;;;4969624;28;20051;-37
2022/06/25 07:23:56;;;;;;;5.75;4.65;;;21.20;99.90;;;;;;4967362;28;20557;-38
2022/06/25 07:26:23;;;;;;;6.22;4.45;;;21.20;99.90;;;;;;4955856;28;20057;-37
2022/06/25 07:28:50;;;;;;;6.80;4.43;;;21.30;99.90;;;;;;4961550;28;20073;-39
2022/06/25 07:31:16;;;;;;;5.82;4.35;;;21.30;99.90;;;;;;4966381;28;20161;-39
2022/06/25 07:33:41;;;;;;;6.18;4.28;;;21.30;99.90;;;;;;4964753;28;20282;-40
2022/06/25 07:36:08;;;;;;;5.50;3.88;;;21.40;99.90;;;;;;4974981;28;20047;-39
2022/06/25 07:38:34;;;;;;;5.13;4.00;;;21.40;99.90;;;;;;4960423;28;20043;-38
2022/06/25 07:41:00;;;;;;;6.93;4.32;;;21.50;99.90;;;;;;4966549;28;20085;-41
2022/06/25 07:43:27;;;;;;;7.55;4.95;;;21.50;99.90;;;;;;4965081;28;20078;-38
2022/06/25 07:45:54;;;;;;;7.35;4.47;;;21.60;99.90;;;;;;4966396;28;20109;-39
2022/06/25 07:48:20;;;;;;;4.72;4.15;;;21.60;99.90;;;;;;4949453;28;20066;-38
2022/06/25 07:53:30;;;;;;;3.55;3.22;;;21.60;99.90;;;;;;4965020;28;20088;-39
2022/06/25 07:55:56;;;;;;;8.00;3.47;;;21.60;99.90;;;;;;4966519;28;20453;-38
2022/06/25 07:58:23;;;;;;;7.03;3.25;;;21.70;99.90;;;;;;4949546;28;20093;-38
2022/06/25 08:00:49;;;;;;;5.50;2.97;;;21.70;99.90;;;;;;4964541;28;20487;-39
2022/06/25 08:03:15;;;;;;;6.40;2.75;;;21.70;99.90;;;;;;4964179;28;20081;-39
2022/06/25 08:05:41;;;;;;;4.70;2.40;;;21.70;99.90;;;;;;4965517;28;20043;-39
2022/06/25 08:08:07;;;;;;;3.50;2.47;;;21.70;99.90;;;;;;4975096;28;20077;-39
2022/06/25 08:10:33;;;;;;;5.35;3.10;;;21.80;99.90;;;;;;4971342;28;20108;-39
2022/06/25 08:12:58;;;;;;;4.25;2.88;;;21.80;99.90;;;;;;4983594;28;20447;-39
2022/06/25 08:15:24;;;;;;;7.10;2.60;;;21.90;99.90;;;;;;4974850;28;20100;-38
2022/06/25 08:17:50;;;;;;;6.70;3.38;;;21.90;99.90;;;;;;4967533;28;20054;-39
2022/06/25 08:20:16;;;;;;;4.38;2.45;;;21.90;99.90;;;;;;4969184;28;20050;-38
2022/06/25 08:22:42;;;;;;;4.28;2.65;;;21.90;99.90;;;;;;4970900;28;20042;-39
2022/06/25 08:25:07;;;;;;;7.03;2.38;;;22.00;99.90;;;;;;4969687;28;20061;-38
2022/06/25 08:27:34;;;;;;;3.00;1.98;;;22.00;99.90;;;;;;4967561;28;20446;-39
2022/06/25 08:30:00;;;;;;;2.85;2.00;;;22.10;99.90;;;;;;4969179;28;20112;-39
2022/06/25 08:32:26;;;;;;;3.35;2.20;;;22.10;99.90;;;;;;4968833;28;20097;-38
2022/06/25 08:34:52;;;;;;;4.70;1.80;;;22.10;99.90;;;;;;4968927;28;20090;-39
2022/06/25 08:37:17;;;;;;;6.07;2.20;;;22.10;99.90;;;;;;4969037;28;20468;-38
2022/06/25 08:39:43;;;;;;;5.80;2.53;;;22.20;99.90;;;;;;4971363;28;20494;-39
2022/06/25 08:42:09;;;;;;;3.08;1.85;;;22.10;99.90;;;;;;4969979;28;20109;-38
2022/06/25 08:44:34;;;;;;;2.90;2.25;;;22.20;99.90;;;;;;4969208;28;20051;-39
2022/06/25 08:47:00;;;;;;;5.28;2.20;;;22.10;99.90;;;;;;4967049;28;20043;-39
2022/06/25 08:49:26;;;;;;;7.30;2.47;;;22.10;99.90;;;;;;4968790;28;20043;-39
2022/06/25 08:51:57;;;;;;;6.72;2.40;;;22.10;99.90;;;;;;4965861;28;20070;-39
2022/06/25 08:54:24;;;;;;;;;;;22.00;99.90;;;;;;4969858;28;20051;-39
2022/06/25 08:56:49;;;;;;;3.75;1.88;;;22.00;99.90;;;;;;4966186;28;20255;-38
2022/06/25 08:59:16;;;;;;;4.30;1.88;;;22.00;99.90;;;;;;4967675;28;20053;-39
2022/06/25 09:01:42;;;;;;;3.72;1.75;;;22.00;99.90;;;;;;4968346;28;20042;-39
2022/06/25 09:04:07;;;;;;;4.97;2.00;;;22.00;99.90;;;;;;4979138;28;20054;-38
2022/06/25 09:06:33;;;;;;;10.35;2.67;;;22.00;99.90;;;;;;4985628;28;20085;-38
2022/06/25 09:09:15;;;;;;;4.63;2.53;;;22.00;99.90;;;;;;4985430;28;20469;-39
2022/06/25 09:11:55;;;;;;;4.88;2.05;;;22.00;99.90;;;;;;4985483;28;20050;-39
2022/06/25 09:14:30;;;;;;;5.40;2.13;;;22.10;99.90;;;;;;4987502;28;20301;-39
2022/06/25 09:17:08;;;;;;;6.80;2.10;;;22.10;99.90;;;;;;4984899;28;20112;-39
2022/06/25 09:19:38;;;;;;;6.05;2.75;;;22.10;99.90;;;;;;4984419;28;20049;-39
2022/06/25 09:22:17;;;;;;;6.57;2.15;;;22.10;99.90;;;;;;4986247;28;20082;-39
2022/06/25 09:24:54;;;;;;;4.15;1.88;;;22.20;99.90;;;;;;4985746;28;20515;-39
2022/06/25 09:27:38;;;;;;;2.55;1.40;;;22.20;99.90;;;;;;4987260;28;20305;-39
2022/06/25 09:30:20;;;;;;;2.53;1.52;;;22.20;99.90;;;;;;4985725;28;20406;-38
2022/06/25 09:32:45;;;;;;;7.10;1.65;;;22.20;99.90;;;;;;4985187;28;20053;-39
2022/06/25 09:35:13;;;;;;;5.05;1.70;;;22.20;99.90;;;;;;4986043;28;20327;-39
2022/06/25 09:37:40;;;;;;;2.42;1.52;;;22.30;99.90;;;;;;4985974;28;20057;-38
2022/06/25 09:40:06;;;;;;;5.43;1.90;;;22.30;99.90;;;;;;4985914;28;20547;-39
2022/06/25 09:42:34;;;;;;;4.50;1.60;;;22.40;99.90;;;;;;4985713;28;20046;-38
2022/06/25 09:45:09;;;;;;;3.20;1.40;;;22.40;99.90;;;;;;4984609;28;20152;-39
2022/06/25 09:47:46;;;;;;;4.40;1.25;;;22.50;99.90;;;;;;4985784;28;20352;-39
2022/06/25 09:50:15;;;;;;;3.63;1.42;;;22.50;99.90;;;;;;4983620;28;20038;-39
2022/06/25 09:52:59;;;;;;;5.30;2.03;;;22.60;99.90;;;;;;4983933;28;20046;-39
2022/06/25 09:55:27;;;;;;;3.05;1.45;;;22.70;99.90;;;;;;4985294;28;20042;-39
2022/06/25 09:57:53;;;;;;;3.67;1.60;;;22.70;99.90;;;;;;4988405;28;20045;-39
2022/06/25 10:00:20;;;;;;;3.05;1.27;;;22.70;99.90;;;;;;4989295;28;20038;-38
2022/06/25 10:02:48;;;;;;;2.83;1.45;;;22.60;99.90;;;;;;4987449;28;20109;-38
2022/06/25 10:05:17;;;;;;;1.52;1.08;;;22.60;99.90;;;;;;4987557;28;20073;-39
2022/06/25 10:08:00;;;;;;;4.80;1.20;;;22.70;99.90;;;;;;4989292;28;20050;-38
2022/06/25 10:10:29;;;;;;;2.25;0.98;;;22.70;99.90;;;;;;4988888;28;20050;-37
2022/06/25 10:12:55;;;;;;;3.63;1.00;;;22.70;99.90;;;;;;4988905;28;20053;-38
2022/06/25 10:15:23;;;;;;;1.42;0.95;;;22.80;99.90;;;;;;4973034;28;20050;-39
2022/06/25 10:17:53;;;;;;;3.42;1.20;;;22.90;99.90;;;;;;4988474;28;20050;-38
2022/06/25 10:20:22;;;;;;;3.63;1.05;;;22.90;99.90;;;;;;4989464;28;20042;-39
2022/06/25 10:22:50;;;;;;;3.17;1.15;;;22.80;99.90;;;;;;4988882;28;20549;-38
2022/06/25 10:25:20;;;;;;;2.92;0.95;;;22.90;99.90;;;;;;4988055;28;20056;-38
2022/06/25 10:27:48;;;;;;;3.85;1.00;;;23.00;99.90;;;;;;4988822;28;20050;-38
2022/06/25 10:30:34;;;;;;;2.00;0.85;;;23.00;99.90;;;;;;4988759;28;20046;-39
2022/06/25 10:33:00;;;;;;;3.60;0.70;;;23.00;99.90;;;;;;4987997;28;20509;-38
2022/06/25 10:35:32;;;;;;;4.22;1.00;;;23.10;99.90;;;;;;4988550;28;20140;-39
2022/06/25 10:38:02;;;;;;;5.22;1.17;;;23.20;99.90;;;;;;4988799;28;20380;-38
2022/06/25 10:40:30;;;;;;;2.47;0.90;;;23.20;99.90;;;;;;4988739;28;20540;-39
2022/06/25 10:43:01;;;;;;;3.30;0.98;;;23.20;99.90;;;;;;4988651;28;20104;-38
2022/06/25 10:45:51;;;;;;;1.52;0.70;;;23.30;99.90;;;;;;4989247;28;20042;-38
2022/06/25 10:48:18;;;;;;;3.53;0.80;;;23.40;99.90;;;;;;4986119;28;20441;-39
2022/06/25 10:50:48;;;;;;;1.02;0.60;;;23.40;99.90;;;;;;4988327;28;20054;-38
2022/06/25 10:53:14;;;;;;;3.80;0.60;;;23.40;99.90;;;;;;4988181;28;20548;-38
2022/06/25 10:55:48;;;;;;;2.08;0.88;;;23.40;99.90;;;;;;4988153;28;20046;-38
2022/06/25 10:58:19;;;;;;;2.17;1.00;;;23.50;99.90;;;;;;4985977;28;20049;-38
2022/06/25 11:00:49;;;;;;;4.00;1.10;;;23.50;99.90;;;;;;4988381;28;20457;-39
2022/06/25 11:03:17;;;;;;;1.73;0.65;;;23.50;99.90;;;;;;4984993;28;20573;-38
2022/06/25 11:05:45;;;;;;;3.20;0.77;;;23.60;99.90;;;;;;4986269;28;20054;-39
2022/06/25 11:08:12;;;;;;;3.40;1.30;;;23.60;99.90;;;;;;4987736;28;20057;-39
2022/06/25 11:10:39;;;;;;;1.23;0.65;;;23.60;99.90;;;;;;4988234;28;20053;-38
2022/06/25 11:13:05;;;;;;;2.50;0.60;;;23.60;99.90;;;;;;4987671;28;20128;-39
2022/06/25 11:15:39;;;;;;;2.85;0.60;;;23.60;99.90;;;;;;4987910;28;20484;-38
2022/06/25 11:18:09;;;;;;;1.98;0.63;;;23.60;99.90;;;;;;4989170;28;20089;-38
2022/06/25 11:20:36;;;;;;;2.03;0.45;;;23.50;99.90;;;;;;4985551;28;20050;-38
2022/06/25 11:23:05;;;;;;;1.88;0.60;;;23.50;99.90;;;;;;4987780;28;20086;-38
2022/06/25 11:28:51;;;;;;;2.70;0.50;;;23.40;99.90;;;;;;4984636;28;20054;-39
2022/06/25 11:31:23;;;;;;;2.05;0.63;;;23.40;99.90;;;;;;4987872;28;20113;-38
2022/06/25 11:33:52;;;;;;;1.02;0.55;;;23.30;99.90;;;;;;4987146;28;20038;-38
2022/06/25 11:36:19;;;;;;;1.40;0.57;;;23.30;99.90;;;;;;4987801;28;20104;-38
2022/06/25 11:38:54;;;;;;;2.22;0.85;;;23.30;99.90;;;;;;4987543;28;20050;-38
2022/06/25 11:41:26;;;;;;;1.80;0.60;;;23.30;99.90;;;;;;4987218;28;20045;-39
2022/06/25 11:43:52;;;;;;;3.90;0.52;;;23.40;99.90;;;;;;4984832;28;20569;-39
2022/06/25 11:46:18;;;;;;;3.33;0.90;;;23.50;99.90;;;;;;4987561;28;20078;-38
2022/06/25 11:48:47;;;;;;;2.20;0.70;;;23.50;99.90;;;;;;4987046;28;20058;-38
2022/06/25 11:51:14;;;;;;;1.92;0.65;;;23.50;99.90;;;;;;4986994;28;20054;-38
2022/06/25 11:53:41;;;;;;;2.90;0.80;;;23.50;99.90;;;;;;4987380;28;20050;-38
2022/06/25 11:56:07;;;;;;;2.15;0.60;;;23.50;99.90;;;;;;4985055;28;20624;-39
2022/06/25 11:58:34;;;;;;;1.60;0.73;;;23.50;99.90;;;;;;4987284;28;20129;-38
2022/06/25 12:01:03;;;;;;;1.48;0.57;;;23.40;99.90;;;;;;4987307;28;20057;-38
2022/06/25 12:03:31;;;;;;;2.13;0.95;;;23.40;99.90;;;;;;4986797;28;20498;-38
2022/06/25 12:06:00;;;;;;;1.85;0.80;;;23.40;99.90;;;;;;4986601;28;20050;-38
2022/06/25 12:08:28;;;;;;;3.13;1.20;;;23.40;99.90;;;;;;4987096;28;20149;-38
2022/06/25 12:10:55;;;;;;;3.20;0.80;;;23.20;99.90;;;;;;4987172;28;20054;-38
2022/06/25 12:13:22;;;;;;;2.92;0.68;;;23.20;99.90;;;;;;4986539;28;20042;-38
2022/06/25 12:15:56;;;;;;;2.08;0.85;;;23.10;99.90;;;;;;4987468;28;20584;-38
2022/06/25 12:18:35;;;;;;;2.80;0.75;;;23.10;99.90;;;;;;4983489;28;20050;-38
2022/06/25 12:21:02;;;;;;;2.05;1.33;;;23.00;99.90;;;;;;4983820;28;20129;-38
2022/06/25 12:23:28;;;;;;;4.72;1.55;;;23.00;99.90;;;;;;4987083;28;20093;-38
2022/06/25 12:25:53;;;;;;;4.47;1.65;;;22.90;99.90;;;;;;4984658;28;20109;-38
2022/06/25 12:28:39;;;;;;;4.60;2.10;;;22.70;99.90;;;;;;4985074;28;20410;-38
2022/06/25 12:31:09;;;;;;;4.53;2.17;;;22.70;99.90;;;;;;4985254;28;20050;-38
2022/06/25 12:33:35;;;;;;;2.72;1.80;;;22.60;99.90;;;;;;4983128;28;20050;-38
2022/06/25 12:36:01;;;;;;;4.30;2.05;;;22.50;99.90;;;;;;4986177;28;20081;-38
2022/06/25 12:38:26;;;;;;;4.85;2.25;;;22.40;99.90;;;;;;4986577;28;20417;-38
2022/06/25 12:40:52;;;;;;;3.83;2.40;;;22.40;99.90;;;;;;4986393;28;20061;-38
2022/06/25 12:43:19;;;;;;;2.95;2.40;;;22.30;99.90;;;;;;4986504;28;20113;-38
2022/06/25 12:45:47;;;;;;;5.65;2.53;;;22.20;99.90;;;;;;4987333;28;20050;-37
2022/06/25 12:48:24;;;;;;;3.25;2.53;;;22.20;99.90;;;;;;4985837;28;20057;-38
2022/06/25 12:50:50;;;;;;;5.28;2.35;;;22.20;99.90;;;;;;4986261;28;20394;-37
2022/06/25 12:53:16;;;;;;;6.07;2.65;;;22.10;99.90;;;;;;4986271;28;20046;-37
2022/06/25 12:55:48;;;;;;;4.60;2.30;;;22.10;99.90;;;;;;4986206;28;20109;-38